createdAt,value
2022-12-15T00:00:03.025Z,81.62
2022-12-15T00:01:03.093Z,81.62
2022-12-15T00:02:03.140Z,81.52
2022-12-15T00:03:03.155Z,81.52
2022-12-15T00:04:03.000Z,81.52
2022-12-15T00:05:02.989Z,81.52
2022-12-15T00:06:02.955Z,81.52
2022-12-15T00:07:03.075Z,81.62
2022-12-15T00:08:02.952Z,81.62
2022-12-15T00:09:02.941Z,81.52
2022-12-15T00:10:02.912Z,81.30
2022-12-15T00:11:02.950Z,81.09
2022-12-15T00:12:04.374Z,81.20
2022-12-15T00:13:04.323Z,81.41
2022-12-15T00:14:03.083Z,81.41
2022-12-15T00:15:04.408Z,81.30
2022-12-15T00:16:03.026Z,81.30
2022-12-15T00:17:02.868Z,81.30
2022-12-15T00:18:02.949Z,81.30
2022-12-15T00:19:02.933Z,81.56
2022-12-15T00:20:02.804Z,81.76
2022-12-15T00:21:02.995Z,81.98
2022-12-15T00:22:02.798Z,81.98
2022-12-15T00:23:02.828Z,81.98
2022-12-15T00:24:02.809Z,81.87
2022-12-15T00:25:02.965Z,81.73
2022-12-15T00:26:02.755Z,81.62
2022-12-15T00:27:02.752Z,81.41
2022-12-15T00:28:02.730Z,81.41
2022-12-15T00:29:02.741Z,81.52
2022-12-15T00:30:02.693Z,81.52
2022-12-15T00:31:02.986Z,81.62
2022-12-15T00:32:03.677Z,81.52
2022-12-15T00:33:02.746Z,81.62
2022-12-15T00:34:04.152Z,81.62
2022-12-15T00:35:04.420Z,81.62
2022-12-15T00:36:02.702Z,81.52
2022-12-15T00:37:03.029Z,81.30
2022-12-15T00:38:02.728Z,81.09
2022-12-15T00:39:04.159Z,81.09
2022-12-15T00:40:02.656Z,81.20
2022-12-15T00:41:02.667Z,81.41
2022-12-15T00:42:02.623Z,81.30
2022-12-15T00:43:02.621Z,81.09
2022-12-15T00:44:02.841Z,80.99
2022-12-15T00:45:03.936Z,80.88
2022-12-15T00:46:02.637Z,80.99
2022-12-15T00:47:03.213Z,81.23
2022-12-15T00:48:03.528Z,81.56
2022-12-15T00:49:04.152Z,81.76
2022-12-15T00:50:02.560Z,81.87
2022-12-15T00:51:02.553Z,82.08
2022-12-15T00:52:02.512Z,81.98
2022-12-15T00:53:02.518Z,81.76
2022-12-15T00:54:02.512Z,81.56
2022-12-15T00:55:02.556Z,81.34
2022-12-15T00:56:02.459Z,81.13
2022-12-15T00:57:02.510Z,80.91
2022-12-15T00:58:02.414Z,80.91
2022-12-15T00:59:02.489Z,81.02
2022-12-15T01:00:03.339Z,81.13
2022-12-15T01:01:02.431Z,81.13
2022-12-15T01:02:02.539Z,81.13
2022-12-15T01:03:02.636Z,81.02
2022-12-15T01:04:02.624Z,80.95
2022-12-15T01:05:02.430Z,81.16
2022-12-15T01:06:02.341Z,81.38
2022-12-15T01:07:02.355Z,81.48
2022-12-15T01:08:02.316Z,81.59
2022-12-15T01:09:02.394Z,81.70
2022-12-15T01:10:02.383Z,81.91
2022-12-15T01:11:03.829Z,82.01
2022-12-15T01:12:02.287Z,82.12
2022-12-15T01:13:03.796Z,82.08
2022-12-15T01:14:03.006Z,82.08
2022-12-15T01:15:03.760Z,81.98
2022-12-15T01:16:03.759Z,81.66
2022-12-15T01:17:03.733Z,81.45
2022-12-15T01:18:02.272Z,81.45
2022-12-15T01:19:02.273Z,81.45
2022-12-15T01:20:02.205Z,81.45
2022-12-15T01:21:02.231Z,81.56
2022-12-15T01:22:02.223Z,81.56
2022-12-15T01:23:02.213Z,81.56
2022-12-15T01:24:02.212Z,81.66
2022-12-15T01:25:02.206Z,81.87
2022-12-15T01:26:02.185Z,82.19
2022-12-15T01:27:02.186Z,82.19
2022-12-15T01:28:02.125Z,82.04
2022-12-15T01:29:03.663Z,81.87
2022-12-15T01:30:03.576Z,81.84
2022-12-15T01:31:02.236Z,81.76
2022-12-15T01:32:02.169Z,81.56
2022-12-15T01:33:02.084Z,81.56
2022-12-15T01:34:02.085Z,81.76
2022-12-15T01:35:02.104Z,81.98
2022-12-15T01:36:02.046Z,82.19
2022-12-15T01:37:02.058Z,82.29
2022-12-15T01:38:02.095Z,82.19
2022-12-15T01:39:02.013Z,82.19
2022-12-15T01:40:02.020Z,82.08
2022-12-15T01:41:02.049Z,82.08
2022-12-15T01:42:03.482Z,81.98
2022-12-15T01:43:02.055Z,81.76
2022-12-15T01:44:02.032Z,81.45
2022-12-15T01:45:02.025Z,81.34
2022-12-15T01:46:01.924Z,81.27
2022-12-15T01:47:02.070Z,81.16
2022-12-15T01:48:01.906Z,81.27
2022-12-15T01:49:02.665Z,81.16
2022-12-15T01:50:01.895Z,81.05
2022-12-15T01:51:01.938Z,81.16
2022-12-15T01:52:01.903Z,81.38
2022-12-15T01:53:01.863Z,81.52
2022-12-15T01:54:01.967Z,81.73
2022-12-15T01:55:01.940Z,82.05
2022-12-15T01:56:01.829Z,82.26
2022-12-15T01:57:02.839Z,82.58
2022-12-15T01:58:01.852Z,82.69
2022-12-15T01:59:01.820Z,82.90
2022-12-15T02:00:01.873Z,83.01
2022-12-15T02:01:03.430Z,82.90
2022-12-15T02:02:08.964Z,82.69
2022-12-15T02:03:02.895Z,82.48
2022-12-15T02:04:02.211Z,82.05
2022-12-15T02:05:01.758Z,81.95
2022-12-15T02:06:01.819Z,81.84
2022-12-15T02:07:01.807Z,81.73
2022-12-15T02:08:11.182Z,81.73
2022-12-15T02:09:08.800Z,81.95
2022-12-15T02:10:01.679Z,82.05
2022-12-15T02:11:01.698Z,81.95
2022-12-15T02:12:01.684Z,81.84
2022-12-15T02:13:01.678Z,81.73
2022-12-15T02:14:01.636Z,81.41
2022-12-15T02:15:01.695Z,81.09
2022-12-15T02:16:01.682Z,80.88
2022-12-15T02:17:01.649Z,80.88
2022-12-15T02:18:01.611Z,80.99
2022-12-15T02:19:03.109Z,80.88
2022-12-15T02:20:03.061Z,80.88
2022-12-15T02:21:02.621Z,80.88
2022-12-15T02:22:01.641Z,80.77
2022-12-15T02:23:01.583Z,80.88
2022-12-15T02:24:01.540Z,80.88
2022-12-15T02:25:03.062Z,80.77
2022-12-15T02:26:03.005Z,80.77
2022-12-15T02:27:01.541Z,80.67
2022-12-15T02:28:01.493Z,80.56
2022-12-15T02:29:01.505Z,80.56
2022-12-15T02:30:01.506Z,80.56
2022-12-15T02:31:01.503Z,80.77
2022-12-15T02:32:01.493Z,80.88
2022-12-15T02:33:01.470Z,80.99
2022-12-15T02:34:01.461Z,80.81
2022-12-15T02:35:01.441Z,80.67
2022-12-15T02:36:01.427Z,80.71
2022-12-15T02:37:01.422Z,80.60
2022-12-15T02:38:02.436Z,80.49
2022-12-15T02:39:02.892Z,80.28
2022-12-15T02:40:01.383Z,80.38
2022-12-15T02:41:01.394Z,80.38
2022-12-15T02:42:01.397Z,80.38
2022-12-15T02:43:01.407Z,80.49
2022-12-15T02:44:01.330Z,80.60
2022-12-15T02:45:01.369Z,80.60
2022-12-15T02:46:01.411Z,80.71
2022-12-15T02:47:01.314Z,80.67
2022-12-15T02:48:01.288Z,80.67
2022-12-15T02:49:01.327Z,80.67
2022-12-15T02:50:01.281Z,80.77
2022-12-15T02:51:01.297Z,80.56
2022-12-15T02:52:01.247Z,80.35
2022-12-15T02:53:01.338Z,80.35
2022-12-15T02:54:02.706Z,80.35
2022-12-15T02:55:02.701Z,80.28
2022-12-15T02:56:01.236Z,80.07
2022-12-15T02:57:01.258Z,80.18
2022-12-15T02:58:02.662Z,80.18
2022-12-15T02:59:02.672Z,80.18
2022-12-15T03:00:01.193Z,79.85
2022-12-15T03:01:01.242Z,79.75
2022-12-15T03:02:01.364Z,79.75
2022-12-15T03:03:01.473Z,79.71
2022-12-15T03:04:01.127Z,79.75
2022-12-15T03:05:01.200Z,79.82
2022-12-15T03:06:02.088Z,79.82
2022-12-15T03:07:01.634Z,79.85
2022-12-15T03:08:01.088Z,79.85
2022-12-15T03:09:01.100Z,79.85
2022-12-15T03:10:01.128Z,79.75
2022-12-15T03:11:01.107Z,79.53
2022-12-15T03:12:01.865Z,79.53
2022-12-15T03:13:01.150Z,79.75
2022-12-15T03:14:01.053Z,79.96
2022-12-15T03:15:01.043Z,80.18
2022-12-15T03:16:01.118Z,79.96
2022-12-15T03:17:01.141Z,79.64
2022-12-15T03:18:01.002Z,79.43
2022-12-15T03:19:01.027Z,79.43
2022-12-15T03:20:00.973Z,79.53
2022-12-15T03:21:00.985Z,79.75
2022-12-15T03:22:00.964Z,79.85
2022-12-15T03:23:01.223Z,79.85
2022-12-15T03:24:02.469Z,79.96
2022-12-15T03:25:00.950Z,80.18
2022-12-15T03:26:00.922Z,80.07
2022-12-15T03:27:00.939Z,79.85
2022-12-15T03:28:00.915Z,79.64
2022-12-15T03:29:00.911Z,79.43
2022-12-15T03:30:02.348Z,79.43
2022-12-15T03:31:01.243Z,79.53
2022-12-15T03:32:00.949Z,79.53
2022-12-15T03:33:00.880Z,79.53
2022-12-15T03:34:00.853Z,79.53
2022-12-15T03:35:00.959Z,79.43
2022-12-15T03:36:00.810Z,79.53
2022-12-15T03:37:00.832Z,79.43
2022-12-15T03:38:00.839Z,79.11
2022-12-15T03:39:00.824Z,79.22
2022-12-15T03:40:00.780Z,79.53
2022-12-15T03:41:00.790Z,79.75
2022-12-15T03:42:00.753Z,79.85
2022-12-15T03:43:00.760Z,79.85
2022-12-15T03:44:00.763Z,79.75
2022-12-15T03:45:00.775Z,79.89
2022-12-15T03:46:02.248Z,80.00
2022-12-15T03:47:03.724Z,79.96
2022-12-15T03:48:02.136Z,79.89
2022-12-15T03:49:02.167Z,79.79
2022-12-15T03:50:01.064Z,79.89
2022-12-15T03:51:02.158Z,79.79
2022-12-15T03:52:02.134Z,79.79
2022-12-15T03:53:00.716Z,79.89
2022-12-15T03:54:00.655Z,80.10
2022-12-15T03:55:00.642Z,80.32
2022-12-15T03:56:00.656Z,80.42
2022-12-15T03:57:01.549Z,80.63
2022-12-15T03:58:00.644Z,80.74
2022-12-15T03:59:00.817Z,80.85
2022-12-15T04:00:01.515Z,80.74
2022-12-15T04:01:00.622Z,80.53
2022-12-15T04:02:00.839Z,80.32
2022-12-15T04:03:00.689Z,80.32
2022-12-15T04:04:01.571Z,80.28
2022-12-15T04:05:00.554Z,80.28
2022-12-15T04:06:00.560Z,80.81
2022-12-15T04:07:00.500Z,81.02
2022-12-15T04:08:00.559Z,80.71
2022-12-15T04:09:00.503Z,80.60
2022-12-15T04:10:00.498Z,81.02
2022-12-15T04:11:00.501Z,81.13
2022-12-15T04:12:00.509Z,80.60
2022-12-15T04:13:00.430Z,80.28
2022-12-15T04:14:00.476Z,80.07
2022-12-15T04:15:00.416Z,79.96
2022-12-15T04:16:01.903Z,80.07
2022-12-15T04:17:01.932Z,80.18
2022-12-15T04:18:00.446Z,80.18
2022-12-15T04:19:00.406Z,80.07
2022-12-15T04:20:00.427Z,79.85
2022-12-15T04:21:00.363Z,79.79
2022-12-15T04:22:00.364Z,79.89
2022-12-15T04:23:00.373Z,80.00
2022-12-15T04:24:00.387Z,80.21
2022-12-15T04:25:00.320Z,80.21
2022-12-15T04:26:00.403Z,80.42
2022-12-15T04:27:00.295Z,80.42
2022-12-15T04:28:01.826Z,80.63
2022-12-15T04:29:00.281Z,80.63
2022-12-15T04:30:00.303Z,80.74
2022-12-15T04:31:00.304Z,80.63
2022-12-15T04:32:00.289Z,80.85
2022-12-15T04:33:00.273Z,80.95
2022-12-15T04:34:00.253Z,81.27
2022-12-15T04:35:00.221Z,81.38
2022-12-15T04:36:01.019Z,81.49
2022-12-15T04:37:01.706Z,81.38
2022-12-15T04:38:00.299Z,81.16
2022-12-15T04:39:00.253Z,81.27
2022-12-15T04:40:00.224Z,81.16
2022-12-15T04:41:00.167Z,80.95
2022-12-15T04:42:00.176Z,80.85
2022-12-15T04:43:00.133Z,80.74
2022-12-15T04:44:00.172Z,80.63
2022-12-15T04:45:00.141Z,80.42
2022-12-15T04:46:00.237Z,80.21
2022-12-15T04:47:00.128Z,80.21
2022-12-15T04:48:00.174Z,80.07
2022-12-15T04:49:00.100Z,80.10
2022-12-15T04:50:01.070Z,80.38
2022-12-15T04:51:01.530Z,81.13
2022-12-15T04:52:01.573Z,82.09
2022-12-15T04:53:00.572Z,82.83
2022-12-15T04:54:00.321Z,83.26
2022-12-15T04:55:00.297Z,83.47
2022-12-15T04:56:00.075Z,83.36
2022-12-15T04:57:00.029Z,83.22
2022-12-15T04:58:00.020Z,83.11
2022-12-15T04:58:59.980Z,83.22
2022-12-15T04:59:59.991Z,83.54
2022-12-15T05:01:00.064Z,83.64
2022-12-15T05:02:00.116Z,83.64
2022-12-15T05:02:59.954Z,83.75
2022-12-15T05:03:59.951Z,83.97
2022-12-15T05:04:59.917Z,84.03
2022-12-15T05:06:00.066Z,84.14
2022-12-15T05:06:59.917Z,84.14
2022-12-15T05:08:00.259Z,84.14
2022-12-15T05:08:59.891Z,84.10
2022-12-15T05:10:03.105Z,84.00
2022-12-15T05:10:59.868Z,83.89
2022-12-15T05:11:59.884Z,83.78
2022-12-15T05:12:59.837Z,83.67
2022-12-15T05:13:59.870Z,83.67
2022-12-15T05:14:59.834Z,83.67
2022-12-15T05:15:59.892Z,83.89
2022-12-15T05:16:59.876Z,84.10
2022-12-15T05:17:59.839Z,84.31
2022-12-15T05:18:59.872Z,84.42
2022-12-15T05:20:01.283Z,84.42
2022-12-15T05:20:59.804Z,84.31
2022-12-15T05:21:59.786Z,84.31
2022-12-15T05:22:59.750Z,84.10
2022-12-15T05:23:59.793Z,84.00
2022-12-15T05:24:59.736Z,83.89
2022-12-15T05:25:59.750Z,84.00
2022-12-15T05:27:01.163Z,84.10
2022-12-15T05:28:00.131Z,84.20
2022-12-15T05:29:00.310Z,84.20
2022-12-15T05:29:59.761Z,84.20
2022-12-15T05:30:59.725Z,84.20
2022-12-15T05:31:59.711Z,84.20
2022-12-15T05:32:59.668Z,84.20
2022-12-15T05:34:05.061Z,84.06
2022-12-15T05:35:00.633Z,84.06
2022-12-15T05:35:59.674Z,84.06
2022-12-15T05:36:59.604Z,84.06
2022-12-15T05:37:59.631Z,84.06
2022-12-15T05:38:59.613Z,83.95
2022-12-15T05:39:59.594Z,83.95
2022-12-15T05:40:59.613Z,83.95
2022-12-15T05:41:59.618Z,83.85
2022-12-15T05:42:59.542Z,83.75
2022-12-15T05:44:01.025Z,83.64
2022-12-15T05:45:00.980Z,83.64
2022-12-15T05:46:01.064Z,83.64
2022-12-15T05:46:59.513Z,83.75
2022-12-15T05:47:59.552Z,83.75
2022-12-15T05:48:59.478Z,83.75
2022-12-15T05:49:59.483Z,83.75
2022-12-15T05:50:59.468Z,83.75
2022-12-15T05:51:59.485Z,83.85
2022-12-15T05:52:59.609Z,83.75
2022-12-15T05:54:00.283Z,83.75
2022-12-15T05:54:59.405Z,83.75
2022-12-15T05:55:59.455Z,83.75
2022-12-15T05:56:59.383Z,83.85
2022-12-15T05:57:59.466Z,83.85
2022-12-15T05:58:59.431Z,83.85
2022-12-15T05:59:59.418Z,83.89
2022-12-15T06:00:59.377Z,83.89
2022-12-15T06:01:59.433Z,84.00
2022-12-15T06:03:08.456Z,84.00
2022-12-15T06:03:59.357Z,84.00
2022-12-15T06:04:59.361Z,84.20
2022-12-15T06:05:59.333Z,84.20
2022-12-15T06:06:59.317Z,84.20
2022-12-15T06:07:59.343Z,84.31
2022-12-15T06:08:59.290Z,84.53
2022-12-15T06:09:59.301Z,84.74
2022-12-15T06:10:59.273Z,84.84
2022-12-15T06:11:59.271Z,84.84
2022-12-15T06:12:59.249Z,84.84
2022-12-15T06:13:59.256Z,84.84
2022-12-15T06:14:59.234Z,84.95
2022-12-15T06:15:59.245Z,85.06
2022-12-15T06:16:59.268Z,85.16
2022-12-15T06:18:00.671Z,84.95
2022-12-15T06:19:00.144Z,84.84
2022-12-15T06:20:00.649Z,84.84
2022-12-15T06:20:59.151Z,84.95
2022-12-15T06:21:59.193Z,84.95
2022-12-15T06:22:59.143Z,85.06
2022-12-15T06:23:59.152Z,85.06
2022-12-15T06:24:59.135Z,85.06
2022-12-15T06:25:59.130Z,85.59
2022-12-15T06:26:59.080Z,85.48
2022-12-15T06:28:01.857Z,85.38
2022-12-15T06:28:59.061Z,85.16
2022-12-15T06:29:59.091Z,85.27
2022-12-15T06:30:59.101Z,85.16
2022-12-15T06:31:59.062Z,85.16
2022-12-15T06:32:59.031Z,85.27
2022-12-15T06:34:02.119Z,85.16
2022-12-15T06:34:59.009Z,85.06
2022-12-15T06:35:59.030Z,85.06
2022-12-15T06:36:58.997Z,84.95
2022-12-15T06:37:59.087Z,84.95
2022-12-15T06:38:58.996Z,85.06
2022-12-15T06:39:59.005Z,85.06
2022-12-15T06:40:58.942Z,85.16
2022-12-15T06:41:58.991Z,85.27
2022-12-15T06:42:59.864Z,85.38
2022-12-15T06:43:59.029Z,85.48
2022-12-15T06:44:59.719Z,85.59
2022-12-15T06:45:58.944Z,85.66
2022-12-15T06:46:59.006Z,85.66
2022-12-15T06:48:01.490Z,85.66
2022-12-15T06:48:58.865Z,85.55
2022-12-15T06:49:58.886Z,85.44
2022-12-15T06:50:58.874Z,85.44
2022-12-15T06:51:58.875Z,85.44
2022-12-15T06:52:58.862Z,85.44
2022-12-15T06:53:58.846Z,85.55
2022-12-15T06:54:58.815Z,85.55
2022-12-15T06:55:58.866Z,85.66
2022-12-15T06:56:58.795Z,85.66
2022-12-15T06:57:58.809Z,85.76
2022-12-15T06:58:58.804Z,85.94
2022-12-15T06:59:58.806Z,85.94
2022-12-15T07:00:58.788Z,86.04
2022-12-15T07:01:58.976Z,86.04
2022-12-15T07:02:58.947Z,85.94
2022-12-15T07:03:58.963Z,85.83
2022-12-15T07:04:58.718Z,85.83
2022-12-15T07:05:58.736Z,85.83
2022-12-15T07:06:58.689Z,85.83
2022-12-15T07:07:59.652Z,85.89
2022-12-15T07:08:58.678Z,86.00
2022-12-15T07:09:58.694Z,86.00
2022-12-15T07:10:58.673Z,85.89
2022-12-15T07:11:58.706Z,86.00
2022-12-15T07:12:58.629Z,86.11
2022-12-15T07:13:58.649Z,86.11
2022-12-15T07:14:58.645Z,86.11
2022-12-15T07:16:00.170Z,86.54
2022-12-15T07:17:00.090Z,86.64
2022-12-15T07:17:58.629Z,86.64
2022-12-15T07:18:58.585Z,86.54
2022-12-15T07:19:58.622Z,86.54
2022-12-15T07:20:58.562Z,86.54
2022-12-15T07:21:58.570Z,86.71
2022-12-15T07:22:58.524Z,86.81
2022-12-15T07:23:59.582Z,86.71
2022-12-15T07:24:58.539Z,86.71
2022-12-15T07:25:58.578Z,86.71
2022-12-15T07:26:58.510Z,86.71
2022-12-15T07:27:58.537Z,86.71
2022-12-15T07:28:58.482Z,86.81
2022-12-15T07:29:58.475Z,86.81
2022-12-15T07:30:58.443Z,86.81
2022-12-15T07:31:58.540Z,86.81
2022-12-15T07:32:58.446Z,86.81
2022-12-15T07:33:58.446Z,86.81
2022-12-15T07:34:58.445Z,86.81
2022-12-15T07:35:58.423Z,86.81
2022-12-15T07:36:58.395Z,87.02
2022-12-15T07:37:58.388Z,87.24
2022-12-15T07:38:58.386Z,87.45
2022-12-15T07:39:58.450Z,87.55
2022-12-15T07:40:58.579Z,87.66
2022-12-15T07:41:59.851Z,87.66
2022-12-15T07:42:58.338Z,87.77
2022-12-15T07:43:58.334Z,87.62
2022-12-15T07:44:58.375Z,87.62
2022-12-15T07:45:58.378Z,87.51
2022-12-15T07:46:58.276Z,87.62
2022-12-15T07:47:58.316Z,87.62
2022-12-15T07:48:58.279Z,87.62
2022-12-15T07:49:58.299Z,87.62
2022-12-15T07:51:05.192Z,87.69
2022-12-15T07:51:59.261Z,87.69
2022-12-15T07:52:58.239Z,87.79
2022-12-15T07:53:58.243Z,87.79
2022-12-15T07:54:58.217Z,87.79
2022-12-15T07:56:07.487Z,87.90
2022-12-15T07:56:59.187Z,87.90
2022-12-15T07:57:58.197Z,87.90
2022-12-15T07:58:58.276Z,88.01
2022-12-15T07:59:58.195Z,88.11
2022-12-15T08:00:58.222Z,88.32
2022-12-15T08:01:58.465Z,88.39
2022-12-15T08:02:58.322Z,88.39
2022-12-15T08:03:58.207Z,88.39
2022-12-15T08:04:58.101Z,88.39
2022-12-15T08:06:03.867Z,88.39
2022-12-15T08:06:59.113Z,88.49
2022-12-15T08:07:58.106Z,88.60
2022-12-15T08:08:58.079Z,88.71
2022-12-15T08:09:58.549Z,88.81
2022-12-15T08:10:58.072Z,88.81
2022-12-15T08:11:58.071Z,88.81
2022-12-15T08:12:58.059Z,88.81
2022-12-15T08:14:03.019Z,88.81
2022-12-15T08:14:59.048Z,88.92
2022-12-15T08:15:58.028Z,88.98
2022-12-15T08:16:58.069Z,89.09
2022-12-15T08:17:57.983Z,89.09
2022-12-15T08:18:57.995Z,89.09
2022-12-15T08:19:58.995Z,89.09
2022-12-15T08:20:57.999Z,89.20
2022-12-15T08:21:57.932Z,89.20
2022-12-15T08:22:57.952Z,89.20
2022-12-15T08:23:57.930Z,89.20
2022-12-15T08:24:57.926Z,89.26
2022-12-15T08:25:57.910Z,89.15
2022-12-15T08:26:57.926Z,89.05
2022-12-15T08:27:57.877Z,89.05
2022-12-15T08:29:11.881Z,89.05
2022-12-15T08:29:58.847Z,89.05
2022-12-15T08:30:58.011Z,88.94
2022-12-15T08:31:57.964Z,89.05
2022-12-15T08:32:57.991Z,89.15
2022-12-15T08:33:57.948Z,89.15
2022-12-15T08:34:57.830Z,89.26
2022-12-15T08:35:57.825Z,89.26
2022-12-15T08:36:57.818Z,89.12
2022-12-15T08:38:02.268Z,89.12
2022-12-15T08:38:59.595Z,89.01
2022-12-15T08:39:57.761Z,88.90
2022-12-15T08:40:57.792Z,88.90
2022-12-15T08:41:57.716Z,88.90
2022-12-15T08:42:57.749Z,88.80
2022-12-15T08:43:57.719Z,88.65
2022-12-15T08:44:57.710Z,88.59
2022-12-15T08:45:57.847Z,88.54
2022-12-15T08:46:57.717Z,88.54
2022-12-15T08:47:57.745Z,88.54
2022-12-15T08:48:57.710Z,88.54
2022-12-15T08:49:57.649Z,88.54
2022-12-15T08:50:57.733Z,88.44
2022-12-15T08:51:57.649Z,88.44
2022-12-15T08:53:29.038Z,88.44
2022-12-15T08:53:58.632Z,88.54
2022-12-15T08:54:57.923Z,88.44
2022-12-15T08:55:59.078Z,88.44
2022-12-15T08:56:59.174Z,88.44
2022-12-15T08:57:57.601Z,88.44
2022-12-15T08:58:57.593Z,88.44
2022-12-15T08:59:57.539Z,88.54
2022-12-15T09:00:57.609Z,88.54
2022-12-15T09:01:57.701Z,88.54
2022-12-15T09:02:57.538Z,88.54
2022-12-15T09:03:57.696Z,88.54
2022-12-15T09:04:57.510Z,88.54
2022-12-15T09:05:57.513Z,88.54
2022-12-15T09:06:57.500Z,88.65
2022-12-15T09:08:03.077Z,88.65
2022-12-15T09:08:58.533Z,88.65
2022-12-15T09:09:57.445Z,88.76
2022-12-15T09:10:57.472Z,88.71
2022-12-15T09:11:57.416Z,88.82
2022-12-15T09:12:57.478Z,88.82
2022-12-15T09:13:57.557Z,88.71
2022-12-15T09:14:57.445Z,88.61
2022-12-15T09:16:09.388Z,88.40
2022-12-15T09:16:58.565Z,88.15
2022-12-15T09:17:57.363Z,88.04
2022-12-15T09:18:57.387Z,88.04
2022-12-15T09:19:57.367Z,87.94
2022-12-15T09:20:57.356Z,87.94
2022-12-15T09:21:57.319Z,87.94
2022-12-15T09:22:57.349Z,88.15
2022-12-15T09:23:57.334Z,88.26
2022-12-15T09:24:57.355Z,88.40
2022-12-15T09:25:57.288Z,88.46
2022-12-15T09:26:57.296Z,88.36
2022-12-15T09:27:57.266Z,88.36
2022-12-15T09:28:57.294Z,88.26
2022-12-15T09:29:57.235Z,88.15
2022-12-15T09:30:57.349Z,88.15
2022-12-15T09:31:57.243Z,88.15
2022-12-15T09:32:57.295Z,88.04
2022-12-15T09:33:57.208Z,88.04
2022-12-15T09:34:57.225Z,87.94
2022-12-15T09:35:57.166Z,87.94
2022-12-15T09:36:57.216Z,87.84
2022-12-15T09:37:57.168Z,87.69
2022-12-15T09:38:57.183Z,87.58
2022-12-15T09:39:57.142Z,87.48
2022-12-15T09:40:57.151Z,87.48
2022-12-15T09:41:57.127Z,87.37
2022-12-15T09:43:25.739Z,87.48
2022-12-15T09:43:58.107Z,87.37
2022-12-15T09:44:57.126Z,87.27
2022-12-15T09:45:57.147Z,87.27
2022-12-15T09:46:57.193Z,87.37
2022-12-15T09:47:57.355Z,87.27
2022-12-15T09:48:58.024Z,87.37
2022-12-15T09:49:57.061Z,87.37
2022-12-15T09:50:57.038Z,87.48
2022-12-15T09:51:57.009Z,87.48
2022-12-15T09:52:57.037Z,87.48
2022-12-15T09:53:57.451Z,87.48
2022-12-15T09:54:57.104Z,87.69
2022-12-15T09:55:56.985Z,87.90
2022-12-15T09:56:56.988Z,88.11
2022-12-15T09:57:56.942Z,88.11
2022-12-15T09:58:56.953Z,88.01
2022-12-15T09:59:56.933Z,87.86
2022-12-15T10:00:56.967Z,87.86
2022-12-15T10:01:56.957Z,87.86
2022-12-15T10:02:57.018Z,87.76
2022-12-15T10:03:57.102Z,87.54
2022-12-15T10:04:56.923Z,87.44
2022-12-15T10:06:15.533Z,87.44
2022-12-15T10:06:57.899Z,87.44
2022-12-15T10:07:57.055Z,87.23
2022-12-15T10:08:56.888Z,87.33
2022-12-15T10:09:56.823Z,87.44
2022-12-15T10:10:56.898Z,87.44
2022-12-15T10:11:58.271Z,87.40
2022-12-15T10:13:02.247Z,87.40
2022-12-15T10:13:56.791Z,87.29
2022-12-15T10:14:56.797Z,87.19
2022-12-15T10:15:56.837Z,87.08
2022-12-15T10:16:56.774Z,87.08
2022-12-15T10:17:56.756Z,87.08
2022-12-15T10:19:00.977Z,86.98
2022-12-15T10:19:56.743Z,86.83
2022-12-15T10:20:56.727Z,86.72
2022-12-15T10:21:56.698Z,86.52
2022-12-15T10:22:56.726Z,86.30
2022-12-15T10:23:56.740Z,86.30
2022-12-15T10:25:12.207Z,86.41
2022-12-15T10:25:57.683Z,86.52
2022-12-15T10:26:56.716Z,86.52
2022-12-15T10:27:56.660Z,86.52
2022-12-15T10:28:56.672Z,86.52
2022-12-15T10:29:56.670Z,86.52
2022-12-15T10:30:58.180Z,86.52
2022-12-15T10:31:56.708Z,86.52
2022-12-15T10:32:56.620Z,86.47
2022-12-15T10:33:56.599Z,86.37
2022-12-15T10:34:56.663Z,86.47
2022-12-15T10:35:56.780Z,86.47
2022-12-15T10:36:56.720Z,86.37
2022-12-15T10:37:58.045Z,86.37
2022-12-15T10:38:56.565Z,86.47
2022-12-15T10:39:56.767Z,86.58
2022-12-15T10:40:57.303Z,86.47
2022-12-15T10:41:56.637Z,86.37
2022-12-15T10:42:56.522Z,86.27
2022-12-15T10:43:56.488Z,86.16
2022-12-15T10:44:56.521Z,85.85
2022-12-15T10:45:56.475Z,85.85
2022-12-15T10:46:56.484Z,85.85
2022-12-15T10:47:56.465Z,85.85
2022-12-15T10:48:56.485Z,85.95
2022-12-15T10:49:56.430Z,86.05
2022-12-15T10:50:56.491Z,86.12
2022-12-15T10:51:56.411Z,86.22
2022-12-15T10:52:57.605Z,86.22
2022-12-15T10:53:56.377Z,86.44
2022-12-15T10:54:56.475Z,86.33
2022-12-15T10:55:56.380Z,86.12
2022-12-15T10:56:56.440Z,85.91
2022-12-15T10:57:57.306Z,85.80
2022-12-15T10:58:56.353Z,86.02
2022-12-15T10:59:56.345Z,86.12
2022-12-15T11:00:56.344Z,86.12
2022-12-15T11:01:56.529Z,86.12
2022-12-15T11:02:56.474Z,86.12
2022-12-15T11:03:57.540Z,86.37
2022-12-15T11:04:56.321Z,86.47
2022-12-15T11:05:56.235Z,86.44
2022-12-15T11:06:56.275Z,86.44
2022-12-15T11:07:56.236Z,86.22
2022-12-15T11:08:56.265Z,86.22
2022-12-15T11:09:56.239Z,86.22
2022-12-15T11:10:56.236Z,86.22
2022-12-15T11:11:56.173Z,86.44
2022-12-15T11:12:59.256Z,86.40
2022-12-15T11:13:56.194Z,86.29
2022-12-15T11:14:56.175Z,85.97
2022-12-15T11:15:56.142Z,85.87
2022-12-15T11:16:56.145Z,85.77
2022-12-15T11:17:56.178Z,85.77
2022-12-15T11:18:56.126Z,85.66
2022-12-15T11:20:02.044Z,85.55
2022-12-15T11:20:57.150Z,85.62
2022-12-15T11:21:56.087Z,85.52
2022-12-15T11:22:56.097Z,85.52
2022-12-15T11:23:56.108Z,85.41
2022-12-15T11:24:56.098Z,85.62
2022-12-15T11:25:58.132Z,85.94
2022-12-15T11:26:56.052Z,85.73
2022-12-15T11:27:56.061Z,85.41
2022-12-15T11:28:56.046Z,85.10
2022-12-15T11:29:56.020Z,84.78
2022-12-15T11:30:56.011Z,84.67
2022-12-15T11:31:57.958Z,84.67
2022-12-15T11:32:57.082Z,84.67
2022-12-15T11:33:57.008Z,84.57
2022-12-15T11:34:57.439Z,84.67
2022-12-15T11:35:55.960Z,84.78
2022-12-15T11:36:55.976Z,84.89
2022-12-15T11:37:55.914Z,84.99
2022-12-15T11:38:56.009Z,85.10
2022-12-15T11:39:55.922Z,85.20
2022-12-15T11:40:55.937Z,85.31
2022-12-15T11:41:55.860Z,85.31
2022-12-15T11:42:55.941Z,85.31
2022-12-15T11:43:59.817Z,85.31
2022-12-15T11:44:55.883Z,85.20
2022-12-15T11:45:55.856Z,85.20
2022-12-15T11:46:55.851Z,85.20
2022-12-15T11:47:55.833Z,85.20
2022-12-15T11:48:55.842Z,84.95
2022-12-15T11:49:55.809Z,84.74
2022-12-15T11:50:55.868Z,84.84
2022-12-15T11:51:55.798Z,84.84
2022-12-15T11:52:55.805Z,85.06
2022-12-15T11:53:55.759Z,85.27
2022-12-15T11:54:55.767Z,85.52
2022-12-15T11:55:55.747Z,85.58
2022-12-15T11:56:55.807Z,85.69
2022-12-15T11:57:56.495Z,85.83
2022-12-15T11:58:57.194Z,85.83
2022-12-15T11:59:55.697Z,85.94
2022-12-15T12:00:55.705Z,86.25
2022-12-15T12:02:02.777Z,86.36
2022-12-15T12:02:56.824Z,86.25
2022-12-15T12:03:55.676Z,86.15
2022-12-15T12:04:55.716Z,86.15
2022-12-15T12:05:56.324Z,86.11
2022-12-15T12:06:55.667Z,86.00
2022-12-15T12:07:55.622Z,85.69
2022-12-15T12:08:55.676Z,85.16
2022-12-15T12:09:55.661Z,85.06
2022-12-15T12:10:55.728Z,85.16
2022-12-15T12:11:55.610Z,85.27
2022-12-15T12:12:55.611Z,85.27
2022-12-15T12:13:56.312Z,85.27
2022-12-15T12:14:55.578Z,85.27
2022-12-15T12:15:55.555Z,85.27
2022-12-15T12:16:55.535Z,85.27
2022-12-15T12:17:55.584Z,85.16
2022-12-15T12:18:55.558Z,85.06
2022-12-15T12:19:55.498Z,84.95
2022-12-15T12:20:55.543Z,84.89
2022-12-15T12:21:55.464Z,84.99
2022-12-15T12:22:56.985Z,85.10
2022-12-15T12:23:55.977Z,85.31
2022-12-15T12:24:55.480Z,85.52
2022-12-15T12:26:01.082Z,85.73
2022-12-15T12:26:58.418Z,85.83
2022-12-15T12:27:56.955Z,85.94
2022-12-15T12:28:55.411Z,86.04
2022-12-15T12:29:55.471Z,85.94
2022-12-15T12:30:55.409Z,85.73
2022-12-15T12:31:59.065Z,85.73
2022-12-15T12:32:56.353Z,85.83
2022-12-15T12:33:55.389Z,85.73
2022-12-15T12:35:56.336Z,85.52
2022-12-15T12:36:55.318Z,85.31
2022-12-15T12:38:01.051Z,85.35
2022-12-15T12:38:56.379Z,85.45
2022-12-15T12:39:55.319Z,85.55
2022-12-15T12:40:55.282Z,85.55
2022-12-15T12:41:55.326Z,85.41
2022-12-15T12:42:55.263Z,85.41
2022-12-15T12:43:55.257Z,85.45
2022-12-15T12:44:55.255Z,85.55
2022-12-15T12:45:55.261Z,85.77
2022-12-15T12:46:55.211Z,85.97
2022-12-15T12:47:55.233Z,86.08
2022-12-15T12:48:55.178Z,86.08
2022-12-15T12:49:55.262Z,86.08
2022-12-15T12:50:55.154Z,85.97
2022-12-15T12:51:55.188Z,85.97
2022-12-15T12:52:55.155Z,85.97